77  °F
Temperature
25  °C
Temperature
22  °C
 Dewpoint
72  °F
  Dewpoint
83  %
 Humidity
  Temperature
9  mph
Wind Speed
8  kts
Wind Speed
14  km/h
Wind Speed
4.0  m/s
Wind Speed
160°
South South
East

Wind Speed
Clear
Conditions
Pressure 29.85 (inHG) - 1010.82 (mb)
Visibility 10.0 (mi) - 16.1 (km)

Sky Conditions
KYIP
Location Willow Run 3 mi (4.83 km)
Metar :KYIP 210153Z 16008KT 10SM CLR 25/22 A2985 RMK AO2 PRESFR SLP100 T02500217
Sat 20th July 21:53 pm

Nearest Airport
https://www.checkwx.com/weather/KYIP
  Metar Aviation API Data Provided by https://www.checkwx.com/ Original CSS/SVG/PHP scripts by weather34.com © 2015-2019